sensor_id;sensor_type;location;lat;lon;timestamp;P1;durP1;ratioP1;P2;durP2;ratioP2
39890;SDS011;25564;53.312;9.790;2022-07-06T00:01:25;4.27;;;1.50;;
39890;SDS011;25564;53.312;9.790;2022-07-06T00:03:56;4.90;;;1.47;;
39890;SDS011;25564;53.312;9.790;2022-07-06T00:06:28;4.20;;;1.23;;
39890;SDS011;25564;53.312;9.790;2022-07-06T00:08:59;5.80;;;1.60;;
39890;SDS011;25564;53.312;9.790;2022-07-06T00:11:31;5.07;;;1.37;;
39890;SDS011;25564;53.312;9.790;2022-07-06T00:14:03;2.63;;;1.37;;
39890;SDS011;25564;53.312;9.790;2022-07-06T00:16:35;5.27;;;1.50;;
39890;SDS011;25564;53.312;9.790;2022-07-06T00:19:07;3.93;;;1.60;;
39890;SDS011;25564;53.312;9.790;2022-07-06T00:21:38;2.63;;;1.47;;
39890;SDS011;25564;53.312;9.790;2022-07-06T00:24:10;3.27;;;1.40;;
39890;SDS011;25564;53.312;9.790;2022-07-06T00:26:41;6.53;;;1.53;;
39890;SDS011;25564;53.312;9.790;2022-07-06T00:29:12;3.27;;;1.30;;
39890;SDS011;25564;53.312;9.790;2022-07-06T00:31:44;2.53;;;1.33;;
39890;SDS011;25564;53.312;9.790;2022-07-06T00:34:15;4.13;;;1.93;;
39890;SDS011;25564;53.312;9.790;2022-07-06T00:36:46;2.67;;;1.33;;
39890;SDS011;25564;53.312;9.790;2022-07-06T00:39:18;3.93;;;1.80;;
39890;SDS011;25564;53.312;9.790;2022-07-06T00:41:50;5.83;;;1.30;;
39890;SDS011;25564;53.312;9.790;2022-07-06T00:44:21;4.90;;;1.40;;
39890;SDS011;25564;53.312;9.790;2022-07-06T00:46:53;3.40;;;1.33;;
39890;SDS011;25564;53.312;9.790;2022-07-06T00:49:24;4.73;;;1.43;;
39890;SDS011;25564;53.312;9.790;2022-07-06T00:52:14;3.47;;;1.70;;
39890;SDS011;25564;53.312;9.790;2022-07-06T00:54:46;5.50;;;1.30;;
39890;SDS011;25564;53.312;9.790;2022-07-06T00:57:18;7.13;;;1.53;;
39890;SDS011;25564;53.312;9.790;2022-07-06T00:59:49;7.87;;;2.00;;
39890;SDS011;25564;53.312;9.790;2022-07-06T01:02:21;2.43;;;1.40;;
39890;SDS011;25564;53.312;9.790;2022-07-06T01:04:53;2.27;;;1.53;;
39890;SDS011;25564;53.312;9.790;2022-07-06T01:07:25;3.50;;;1.50;;
39890;SDS011;25564;53.312;9.790;2022-07-06T01:09:57;5.13;;;1.30;;
39890;SDS011;25564;53.312;9.790;2022-07-06T01:12:28;4.60;;;1.63;;
39890;SDS011;25564;53.312;9.790;2022-07-06T01:15:00;7.03;;;1.80;;
39890;SDS011;25564;53.312;9.790;2022-07-06T01:17:32;4.67;;;1.57;;
39890;SDS011;25564;53.312;9.790;2022-07-06T01:22:50;3.70;;;1.57;;
39890;SDS011;25564;53.312;9.790;2022-07-06T01:25:22;2.43;;;1.27;;
39890;SDS011;25564;53.312;9.790;2022-07-06T01:27:54;5.37;;;1.93;;
39890;SDS011;25564;53.312;9.790;2022-07-06T01:30:25;2.80;;;1.40;;
39890;SDS011;25564;53.312;9.790;2022-07-06T01:32:57;2.67;;;1.30;;
39890;SDS011;25564;53.312;9.790;2022-07-06T01:35:29;2.97;;;1.03;;
39890;SDS011;25564;53.312;9.790;2022-07-06T01:38:06;5.90;;;1.47;;
39890;SDS011;25564;53.312;9.790;2022-07-06T01:40:37;5.40;;;1.53;;
39890;SDS011;25564;53.312;9.790;2022-07-06T01:43:09;4.67;;;1.20;;
39890;SDS011;25564;53.312;9.790;2022-07-06T01:45:40;5.13;;;1.50;;
39890;SDS011;25564;53.312;9.790;2022-07-06T01:48:12;4.40;;;1.33;;
39890;SDS011;25564;53.312;9.790;2022-07-06T01:50:43;3.77;;;1.43;;
39890;SDS011;25564;53.312;9.790;2022-07-06T01:53:14;5.20;;;2.30;;
39890;SDS011;25564;53.312;9.790;2022-07-06T01:55:46;2.57;;;1.20;;
39890;SDS011;25564;53.312;9.790;2022-07-06T01:58:17;3.97;;;1.40;;
39890;SDS011;25564;53.312;9.790;2022-07-06T02:00:49;6.43;;;1.40;;
39890;SDS011;25564;53.312;9.790;2022-07-06T02:03:21;4.70;;;1.30;;
39890;SDS011;25564;53.312;9.790;2022-07-06T02:05:53;2.07;;;1.10;;
39890;SDS011;25564;53.312;9.790;2022-07-06T02:08:24;3.50;;;1.20;;
39890;SDS011;25564;53.312;9.790;2022-07-06T02:10:56;6.47;;;1.60;;
39890;SDS011;25564;53.312;9.790;2022-07-06T02:13:28;4.13;;;1.40;;
39890;SDS011;25564;53.312;9.790;2022-07-06T02:15:59;6.07;;;1.40;;
39890;SDS011;25564;53.312;9.790;2022-07-06T02:18:31;3.20;;;1.20;;
39890;SDS011;25564;53.312;9.790;2022-07-06T02:21:03;4.17;;;1.43;;
39890;SDS011;25564;53.312;9.790;2022-07-06T02:23:35;3.97;;;1.83;;
39890;SDS011;25564;53.312;9.790;2022-07-06T02:26:07;3.77;;;1.70;;
39890;SDS011;25564;53.312;9.790;2022-07-06T02:28:38;4.07;;;1.63;;
39890;SDS011;25564;53.312;9.790;2022-07-06T02:31:10;2.83;;;1.23;;
39890;SDS011;25564;53.312;9.790;2022-07-06T02:33:44;4.97;;;1.47;;
39890;SDS011;25564;53.312;9.790;2022-07-06T02:36:15;4.27;;;1.80;;
39890;SDS011;25564;53.312;9.790;2022-07-06T02:38:47;3.47;;;1.60;;
39890;SDS011;25564;53.312;9.790;2022-07-06T02:41:18;4.17;;;1.30;;
39890;SDS011;25564;53.312;9.790;2022-07-06T02:43:49;4.60;;;1.50;;
39890;SDS011;25564;53.312;9.790;2022-07-06T02:46:21;4.83;;;1.20;;
39890;SDS011;25564;53.312;9.790;2022-07-06T02:48:52;5.10;;;1.60;;
39890;SDS011;25564;53.312;9.790;2022-07-06T02:51:23;6.00;;;1.53;;
39890;SDS011;25564;53.312;9.790;2022-07-06T02:53:55;5.20;;;1.50;;
39890;SDS011;25564;53.312;9.790;2022-07-06T02:56:26;3.40;;;1.30;;
39890;SDS011;25564;53.312;9.790;2022-07-06T02:58:59;4.37;;;1.30;;
39890;SDS011;25564;53.312;9.790;2022-07-06T03:01:30;4.67;;;1.10;;
39890;SDS011;25564;53.312;9.790;2022-07-06T03:04:02;2.37;;;1.40;;
39890;SDS011;25564;53.312;9.790;2022-07-06T03:06:33;6.30;;;1.97;;
39890;SDS011;25564;53.312;9.790;2022-07-06T03:09:04;3.07;;;1.33;;
39890;SDS011;25564;53.312;9.790;2022-07-06T03:11:36;6.93;;;1.23;;
39890;SDS011;25564;53.312;9.790;2022-07-06T03:14:07;6.10;;;1.40;;
39890;SDS011;25564;53.312;9.790;2022-07-06T03:16:38;3.10;;;1.30;;
39890;SDS011;25564;53.312;9.790;2022-07-06T03:19:10;3.57;;;1.17;;
39890;SDS011;25564;53.312;9.790;2022-07-06T03:21:41;4.57;;;1.60;;
39890;SDS011;25564;53.312;9.790;2022-07-06T03:24:13;5.63;;;1.63;;
39890;SDS011;25564;53.312;9.790;2022-07-06T03:26:44;3.63;;;1.20;;
39890;SDS011;25564;53.312;9.790;2022-07-06T03:29:15;3.63;;;1.40;;
39890;SDS011;25564;53.312;9.790;2022-07-06T03:31:47;2.60;;;1.20;;
39890;SDS011;25564;53.312;9.790;2022-07-06T03:34:18;3.40;;;1.47;;
39890;SDS011;25564;53.312;9.790;2022-07-06T03:36:50;4.17;;;1.80;;
39890;SDS011;25564;53.312;9.790;2022-07-06T03:39:21;3.60;;;1.47;;
39890;SDS011;25564;53.312;9.790;2022-07-06T03:41:53;5.87;;;1.60;;
39890;SDS011;25564;53.312;9.790;2022-07-06T03:44:24;2.30;;;1.23;;
39890;SDS011;25564;53.312;9.790;2022-07-06T03:46:55;3.47;;;1.40;;
39890;SDS011;25564;53.312;9.790;2022-07-06T03:49:27;3.60;;;2.00;;
39890;SDS011;25564;53.312;9.790;2022-07-06T03:51:58;8.60;;;2.53;;
39890;SDS011;25564;53.312;9.790;2022-07-06T03:54:30;7.83;;;2.23;;
39890;SDS011;25564;53.312;9.790;2022-07-06T03:57:02;3.53;;;1.40;;
39890;SDS011;25564;53.312;9.790;2022-07-06T03:59:33;5.03;;;1.50;;
39890;SDS011;25564;53.312;9.790;2022-07-06T04:02:05;3.43;;;1.57;;
39890;SDS011;25564;53.312;9.790;2022-07-06T04:04:36;4.07;;;1.50;;
39890;SDS011;25564;53.312;9.790;2022-07-06T04:07:08;5.30;;;1.53;;
39890;SDS011;25564;53.312;9.790;2022-07-06T04:09:39;4.57;;;2.30;;
39890;SDS011;25564;53.312;9.790;2022-07-06T04:12:10;5.67;;;1.20;;
39890;SDS011;25564;53.312;9.790;2022-07-06T04:14:46;3.53;;;2.10;;
39890;SDS011;25564;53.312;9.790;2022-07-06T04:17:18;3.13;;;1.70;;
39890;SDS011;25564;53.312;9.790;2022-07-06T04:20:08;2.77;;;1.40;;
39890;SDS011;25564;53.312;9.790;2022-07-06T04:22:40;4.23;;;1.83;;
39890;SDS011;25564;53.312;9.790;2022-07-06T04:25:11;4.10;;;1.63;;
39890;SDS011;25564;53.312;9.790;2022-07-06T04:27:43;5.77;;;1.80;;
39890;SDS011;25564;53.312;9.790;2022-07-06T04:30:15;4.50;;;1.50;;
39890;SDS011;25564;53.312;9.790;2022-07-06T04:32:47;3.07;;;1.40;;
39890;SDS011;25564;53.312;9.790;2022-07-06T04:35:18;3.90;;;2.00;;
39890;SDS011;25564;53.312;9.790;2022-07-06T04:37:50;3.00;;;1.53;;
39890;SDS011;25564;53.312;9.790;2022-07-06T04:40:21;7.70;;;1.70;;
39890;SDS011;25564;53.312;9.790;2022-07-06T04:42:52;3.40;;;1.20;;
39890;SDS011;25564;53.312;9.790;2022-07-06T04:45:24;3.20;;;1.80;;
39890;SDS011;25564;53.312;9.790;2022-07-06T04:47:55;8.70;;;1.90;;
39890;SDS011;25564;53.312;9.790;2022-07-06T04:50:26;2.97;;;1.40;;
39890;SDS011;25564;53.312;9.790;2022-07-06T04:52:58;4.20;;;1.30;;
39890;SDS011;25564;53.312;9.790;2022-07-06T04:55:29;4.40;;;1.40;;
39890;SDS011;25564;53.312;9.790;2022-07-06T04:58:00;6.83;;;1.20;;
39890;SDS011;25564;53.312;9.790;2022-07-06T05:00:32;3.60;;;1.37;;
39890;SDS011;25564;53.312;9.790;2022-07-06T05:03:03;3.27;;;1.20;;
39890;SDS011;25564;53.312;9.790;2022-07-06T05:05:35;3.90;;;1.53;;
39890;SDS011;25564;53.312;9.790;2022-07-06T05:08:06;9.47;;;1.43;;
39890;SDS011;25564;53.312;9.790;2022-07-06T05:10:37;4.70;;;1.23;;
39890;SDS011;25564;53.312;9.790;2022-07-06T05:13:09;3.37;;;1.10;;
39890;SDS011;25564;53.312;9.790;2022-07-06T05:15:40;4.50;;;1.27;;
39890;SDS011;25564;53.312;9.790;2022-07-06T05:18:11;3.90;;;1.03;;
39890;SDS011;25564;53.312;9.790;2022-07-06T05:20:43;4.67;;;1.13;;
39890;SDS011;25564;53.312;9.790;2022-07-06T05:23:15;2.07;;;0.77;;
39890;SDS011;25564;53.312;9.790;2022-07-06T05:25:46;3.67;;;1.13;;
39890;SDS011;25564;53.312;9.790;2022-07-06T05:28:18;2.20;;;0.70;;
39890;SDS011;25564;53.312;9.790;2022-07-06T05:30:49;2.90;;;0.80;;
39890;SDS011;25564;53.312;9.790;2022-07-06T05:33:20;1.67;;;0.57;;
39890;SDS011;25564;53.312;9.790;2022-07-06T05:35:52;2.37;;;0.60;;
39890;SDS011;25564;53.312;9.790;2022-07-06T05:38:23;2.33;;;1.17;;
39890;SDS011;25564;53.312;9.790;2022-07-06T05:40:55;1.27;;;0.50;;
39890;SDS011;25564;53.312;9.790;2022-07-06T05:43:27;2.30;;;0.40;;
39890;SDS011;25564;53.312;9.790;2022-07-06T05:45:58;4.10;;;0.60;;
39890;SDS011;25564;53.312;9.790;2022-07-06T05:48:29;1.93;;;0.40;;
39890;SDS011;25564;53.312;9.790;2022-07-06T05:51:19;2.10;;;0.50;;
39890;SDS011;25564;53.312;9.790;2022-07-06T05:53:51;2.53;;;0.80;;
39890;SDS011;25564;53.312;9.790;2022-07-06T05:56:22;2.97;;;0.70;;
39890;SDS011;25564;53.312;9.790;2022-07-06T05:58:53;2.70;;;0.60;;
39890;SDS011;25564;53.312;9.790;2022-07-06T06:01:25;2.17;;;0.60;;
39890;SDS011;25564;53.312;9.790;2022-07-06T06:03:56;2.00;;;0.77;;
39890;SDS011;25564;53.312;9.790;2022-07-06T06:06:28;5.83;;;0.70;;
39890;SDS011;25564;53.312;9.790;2022-07-06T06:09:02;5.27;;;1.20;;
39890;SDS011;25564;53.312;9.790;2022-07-06T06:11:33;1.87;;;0.60;;
39890;SDS011;25564;53.312;9.790;2022-07-06T06:14:05;2.17;;;0.77;;
39890;SDS011;25564;53.312;9.790;2022-07-06T06:16:36;3.37;;;0.90;;
39890;SDS011;25564;53.312;9.790;2022-07-06T06:19:08;5.90;;;0.90;;
39890;SDS011;25564;53.312;9.790;2022-07-06T06:21:39;5.00;;;1.03;;
39890;SDS011;25564;53.312;9.790;2022-07-06T06:24:11;5.07;;;1.23;;
39890;SDS011;25564;53.312;9.790;2022-07-06T06:26:42;3.10;;;1.00;;
39890;SDS011;25564;53.312;9.790;2022-07-06T06:29:14;2.53;;;0.93;;
39890;SDS011;25564;53.312;9.790;2022-07-06T06:31:45;4.30;;;1.50;;
39890;SDS011;25564;53.312;9.790;2022-07-06T06:34:17;3.40;;;1.33;;
39890;SDS011;25564;53.312;9.790;2022-07-06T06:36:48;2.87;;;1.07;;
39890;SDS011;25564;53.312;9.790;2022-07-06T06:39:19;5.77;;;1.00;;
39890;SDS011;25564;53.312;9.790;2022-07-06T06:41:51;5.37;;;1.33;;
39890;SDS011;25564;53.312;9.790;2022-07-06T06:44:22;2.53;;;1.03;;
39890;SDS011;25564;53.312;9.790;2022-07-06T06:46:54;4.33;;;1.10;;
39890;SDS011;25564;53.312;9.790;2022-07-06T06:49:25;3.17;;;1.10;;
39890;SDS011;25564;53.312;9.790;2022-07-06T06:51:57;4.27;;;1.07;;
39890;SDS011;25564;53.312;9.790;2022-07-06T06:54:48;6.32;;;0.93;;
39890;SDS011;25564;53.312;9.790;2022-07-06T06:57:19;2.97;;;0.70;;
39890;SDS011;25564;53.312;9.790;2022-07-06T06:59:51;5.25;;;1.08;;
39890;SDS011;25564;53.312;9.790;2022-07-06T07:02:22;5.65;;;1.20;;
39890;SDS011;25564;53.312;9.790;2022-07-06T07:04:53;2.67;;;0.90;;
39890;SDS011;25564;53.312;9.790;2022-07-06T07:07:25;3.58;;;0.80;;
39890;SDS011;25564;53.312;9.790;2022-07-06T07:09:56;1.05;;;0.73;;
39890;SDS011;25564;53.312;9.790;2022-07-06T07:12:28;5.63;;;1.17;;
39890;SDS011;25564;53.312;9.790;2022-07-06T07:14:59;3.40;;;0.80;;
39890;SDS011;25564;53.312;9.790;2022-07-06T07:17:31;4.13;;;0.85;;
39890;SDS011;25564;53.312;9.790;2022-07-06T07:20:03;4.20;;;0.70;;
39890;SDS011;25564;53.312;9.790;2022-07-06T07:22:35;4.32;;;0.90;;
39890;SDS011;25564;53.312;9.790;2022-07-06T07:25:07;6.43;;;0.88;;
39890;SDS011;25564;53.312;9.790;2022-07-06T07:27:38;1.92;;;0.52;;
39890;SDS011;25564;53.312;9.790;2022-07-06T07:30:10;7.53;;;1.17;;
39890;SDS011;25564;53.312;9.790;2022-07-06T07:32:42;3.83;;;1.00;;
39890;SDS011;25564;53.312;9.790;2022-07-06T07:35:14;3.10;;;0.60;;
39890;SDS011;25564;53.312;9.790;2022-07-06T07:37:47;7.13;;;1.02;;
39890;SDS011;25564;53.312;9.790;2022-07-06T07:40:18;3.15;;;0.60;;
39890;SDS011;25564;53.312;9.790;2022-07-06T07:42:56;2.67;;;0.90;;
39890;SDS011;25564;53.312;9.790;2022-07-06T07:45:27;3.45;;;0.60;;
39890;SDS011;25564;53.312;9.790;2022-07-06T07:47:59;5.60;;;0.73;;
39890;SDS011;25564;53.312;9.790;2022-07-06T07:50:30;5.53;;;1.17;;
39890;SDS011;25564;53.312;9.790;2022-07-06T07:53:01;2.05;;;1.02;;
39890;SDS011;25564;53.312;9.790;2022-07-06T07:55:33;3.67;;;0.68;;
39890;SDS011;25564;53.312;9.790;2022-07-06T07:58:12;4.90;;;0.90;;
39890;SDS011;25564;53.312;9.790;2022-07-06T08:00:44;4.78;;;0.80;;
39890;SDS011;25564;53.312;9.790;2022-07-06T08:03:17;2.33;;;1.02;;
39890;SDS011;25564;53.312;9.790;2022-07-06T08:05:48;4.53;;;1.02;;
39890;SDS011;25564;53.312;9.790;2022-07-06T08:08:19;3.22;;;0.68;;
39890;SDS011;25564;53.312;9.790;2022-07-06T08:10:51;3.67;;;0.52;;
39890;SDS011;25564;53.312;9.790;2022-07-06T08:13:43;3.15;;;1.00;;
39890;SDS011;25564;53.312;9.790;2022-07-06T08:16:14;1.65;;;0.68;;
39890;SDS011;25564;53.312;9.790;2022-07-06T08:18:46;1.23;;;0.45;;
39890;SDS011;25564;53.312;9.790;2022-07-06T08:21:17;2.30;;;0.43;;
39890;SDS011;25564;53.312;9.790;2022-07-06T08:23:55;0.40;;;0.20;;
39890;SDS011;25564;53.312;9.790;2022-07-06T08:26:27;2.55;;;0.30;;
39890;SDS011;25564;53.312;9.790;2022-07-06T08:28:58;0.20;;;0.20;;
39890;SDS011;25564;53.312;9.790;2022-07-06T08:31:30;1.25;;;0.40;;
39890;SDS011;25564;53.312;9.790;2022-07-06T08:34:22;1.38;;;0.40;;
39890;SDS011;25564;53.312;9.790;2022-07-06T08:36:53;0.55;;;0.30;;
39890;SDS011;25564;53.312;9.790;2022-07-06T08:39:25;1.67;;;0.30;;
39890;SDS011;25564;53.312;9.790;2022-07-06T08:41:56;2.40;;;0.40;;
39890;SDS011;25564;53.312;9.790;2022-07-06T08:44:29;1.85;;;0.57;;
39890;SDS011;25564;53.312;9.790;2022-07-06T08:47:01;2.72;;;0.88;;
39890;SDS011;25564;53.312;9.790;2022-07-06T08:49:35;4.78;;;1.13;;
39890;SDS011;25564;53.312;9.790;2022-07-06T08:52:07;2.60;;;0.35;;
39890;SDS011;25564;53.312;9.790;2022-07-06T08:54:39;2.22;;;0.60;;
39890;SDS011;25564;53.312;9.790;2022-07-06T08:57:11;4.40;;;0.60;;
39890;SDS011;25564;53.312;9.790;2022-07-06T08:59:42;2.35;;;0.40;;
39890;SDS011;25564;53.312;9.790;2022-07-06T09:02:14;1.27;;;0.55;;
39890;SDS011;25564;53.312;9.790;2022-07-06T09:04:46;2.45;;;0.85;;
39890;SDS011;25564;53.312;9.790;2022-07-06T09:07:17;4.03;;;0.70;;
39890;SDS011;25564;53.312;9.790;2022-07-06T09:10:10;1.30;;;0.40;;
39890;SDS011;25564;53.312;9.790;2022-07-06T09:12:42;3.45;;;0.50;;
39890;SDS011;25564;53.312;9.790;2022-07-06T09:15:14;3.28;;;0.50;;
39890;SDS011;25564;53.312;9.790;2022-07-06T09:17:46;1.80;;;0.55;;
39890;SDS011;25564;53.312;9.790;2022-07-06T09:20:17;2.53;;;0.80;;
39890;SDS011;25564;53.312;9.790;2022-07-06T09:22:49;1.52;;;0.50;;
39890;SDS011;25564;53.312;9.790;2022-07-06T09:25:20;5.28;;;0.73;;
39890;SDS011;25564;53.312;9.790;2022-07-06T09:27:52;1.60;;;0.52;;
39890;SDS011;25564;53.312;9.790;2022-07-06T09:30:27;3.33;;;0.40;;
39890;SDS011;25564;53.312;9.790;2022-07-06T09:33:00;4.82;;;0.70;;
39890;SDS011;25564;53.312;9.790;2022-07-06T09:35:35;1.48;;;0.60;;
39890;SDS011;25564;53.312;9.790;2022-07-06T09:38:12;4.13;;;0.55;;
39890;SDS011;25564;53.312;9.790;2022-07-06T09:40:45;2.70;;;0.55;;
39890;SDS011;25564;53.312;9.790;2022-07-06T09:43:20;3.25;;;0.73;;
39890;SDS011;25564;53.312;9.790;2022-07-06T09:45:54;1.80;;;0.68;;
39890;SDS011;25564;53.312;9.790;2022-07-06T09:48:27;1.45;;;0.73;;
39890;SDS011;25564;53.312;9.790;2022-07-06T09:51:00;2.47;;;0.50;;
39890;SDS011;25564;53.312;9.790;2022-07-06T09:53:37;0.93;;;0.40;;
39890;SDS011;25564;53.312;9.790;2022-07-06T09:56:09;2.83;;;0.50;;
39890;SDS011;25564;53.312;9.790;2022-07-06T09:58:40;3.28;;;0.60;;
39890;SDS011;25564;53.312;9.790;2022-07-06T10:01:31;5.60;;;0.60;;
39890;SDS011;25564;53.312;9.790;2022-07-06T10:04:04;1.27;;;0.50;;
39890;SDS011;25564;53.312;9.790;2022-07-06T10:06:36;3.93;;;0.80;;
39890;SDS011;25564;53.312;9.790;2022-07-06T10:09:08;3.20;;;0.70;;
39890;SDS011;25564;53.312;9.790;2022-07-06T10:11:45;2.40;;;0.45;;
39890;SDS011;25564;53.312;9.790;2022-07-06T10:14:20;2.07;;;0.80;;
39890;SDS011;25564;53.312;9.790;2022-07-06T10:16:54;2.40;;;0.57;;
39890;SDS011;25564;53.312;9.790;2022-07-06T10:19:29;3.83;;;0.83;;
39890;SDS011;25564;53.312;9.790;2022-07-06T10:22:02;3.20;;;0.50;;
39890;SDS011;25564;53.312;9.790;2022-07-06T10:24:34;2.00;;;0.40;;
39890;SDS011;25564;53.312;9.790;2022-07-06T10:27:14;2.05;;;0.55;;
39890;SDS011;25564;53.312;9.790;2022-07-06T10:29:46;4.18;;;0.57;;
39890;SDS011;25564;53.312;9.790;2022-07-06T10:32:18;0.75;;;0.32;;
39890;SDS011;25564;53.312;9.790;2022-07-06T10:34:51;3.88;;;0.65;;
39890;SDS011;25564;53.312;9.790;2022-07-06T10:37:24;2.95;;;0.60;;
39890;SDS011;25564;53.312;9.790;2022-07-06T10:39:56;4.15;;;0.57;;
39890;SDS011;25564;53.312;9.790;2022-07-06T10:50:52;0.47;;;0.40;;
39890;SDS011;25564;53.312;9.790;2022-07-06T10:53:26;1.45;;;0.45;;
39890;SDS011;25564;53.312;9.790;2022-07-06T10:58:46;3.65;;;0.52;;
39890;SDS011;25564;53.312;9.790;2022-07-06T11:01:18;1.95;;;0.40;;
39890;SDS011;25564;53.312;9.790;2022-07-06T11:06:31;3.40;;;0.30;;
39890;SDS011;25564;53.312;9.790;2022-07-06T11:09:05;1.38;;;0.30;;
39890;SDS011;25564;53.312;9.790;2022-07-06T11:11:41;2.58;;;0.30;;
39890;SDS011;25564;53.312;9.790;2022-07-06T11:14:18;2.40;;;0.52;;
39890;SDS011;25564;53.312;9.790;2022-07-06T11:19:24;3.58;;;0.60;;
39890;SDS011;25564;53.312;9.790;2022-07-06T11:21:57;2.83;;;0.57;;
39890;SDS011;25564;53.312;9.790;2022-07-06T11:24:37;2.42;;;0.52;;
39890;SDS011;25564;53.312;9.790;2022-07-06T11:27:09;1.42;;;0.57;;
39890;SDS011;25564;53.312;9.790;2022-07-06T11:29:41;3.30;;;0.50;;
39890;SDS011;25564;53.312;9.790;2022-07-06T11:32:12;2.42;;;0.50;;
39890;SDS011;25564;53.312;9.790;2022-07-06T11:34:45;1.65;;;0.50;;
39890;SDS011;25564;53.312;9.790;2022-07-06T11:37:16;2.60;;;0.70;;
39890;SDS011;25564;53.312;9.790;2022-07-06T11:39:49;0.73;;;0.30;;
39890;SDS011;25564;53.312;9.790;2022-07-06T11:42:20;0.77;;;0.40;;
39890;SDS011;25564;53.312;9.790;2022-07-06T11:44:51;3.72;;;0.52;;
39890;SDS011;25564;53.312;9.790;2022-07-06T11:47:30;1.15;;;0.35;;
39890;SDS011;25564;53.312;9.790;2022-07-06T11:50:01;1.58;;;0.47;;
39890;SDS011;25564;53.312;9.790;2022-07-06T11:52:33;3.08;;;0.57;;
39890;SDS011;25564;53.312;9.790;2022-07-06T11:55:04;2.63;;;0.50;;
39890;SDS011;25564;53.312;9.790;2022-07-06T11:57:36;3.97;;;0.80;;
39890;SDS011;25564;53.312;9.790;2022-07-06T12:00:09;2.05;;;1.05;;
39890;SDS011;25564;53.312;9.790;2022-07-06T12:02:56;2.33;;;0.40;;
39890;SDS011;25564;53.312;9.790;2022-07-06T12:05:30;3.03;;;0.65;;
39890;SDS011;25564;53.312;9.790;2022-07-06T12:08:03;3.17;;;0.82;;
39890;SDS011;25564;53.312;9.790;2022-07-06T12:10:37;1.25;;;0.30;;
39890;SDS011;25564;53.312;9.790;2022-07-06T12:13:09;5.47;;;0.60;;
39890;SDS011;25564;53.312;9.790;2022-07-06T12:15:40;1.50;;;0.22;;
39890;SDS011;25564;53.312;9.790;2022-07-06T12:18:11;2.67;;;0.60;;
39890;SDS011;25564;53.312;9.790;2022-07-06T12:20:43;2.42;;;0.55;;
39890;SDS011;25564;53.312;9.790;2022-07-06T12:23:14;4.35;;;1.48;;
39890;SDS011;25564;53.312;9.790;2022-07-06T12:25:46;1.95;;;0.47;;
39890;SDS011;25564;53.312;9.790;2022-07-06T12:28:24;1.60;;;0.40;;
39890;SDS011;25564;53.312;9.790;2022-07-06T12:30:55;3.00;;;0.70;;
39890;SDS011;25564;53.312;9.790;2022-07-06T12:33:27;0.95;;;0.40;;
39890;SDS011;25564;53.312;9.790;2022-07-06T12:36:09;1.50;;;0.35;;
39890;SDS011;25564;53.312;9.790;2022-07-06T12:38:45;2.75;;;0.52;;
39890;SDS011;25564;53.312;9.790;2022-07-06T12:41:28;2.42;;;0.43;;
39890;SDS011;25564;53.312;9.790;2022-07-06T12:44:06;2.53;;;0.60;;
39890;SDS011;25564;53.312;9.790;2022-07-06T12:46:39;2.78;;;0.47;;
39890;SDS011;25564;53.312;9.790;2022-07-06T12:51:48;1.67;;;0.43;;
39890;SDS011;25564;53.312;9.790;2022-07-06T12:54:44;2.13;;;0.50;;
39890;SDS011;25564;53.312;9.790;2022-07-06T12:57:22;1.60;;;0.50;;
39890;SDS011;25564;53.312;9.790;2022-07-06T12:59:57;2.88;;;0.63;;
39890;SDS011;25564;53.312;9.790;2022-07-06T13:02:34;2.55;;;0.38;;
39890;SDS011;25564;53.312;9.790;2022-07-06T13:05:28;2.42;;;0.40;;
39890;SDS011;25564;53.312;9.790;2022-07-06T13:07:59;2.15;;;0.35;;
39890;SDS011;25564;53.312;9.790;2022-07-06T13:10:32;1.88;;;0.32;;
39890;SDS011;25564;53.312;9.790;2022-07-06T13:13:07;4.47;;;0.47;;
39890;SDS011;25564;53.312;9.790;2022-07-06T13:15:41;1.00;;;0.55;;
39890;SDS011;25564;53.312;9.790;2022-07-06T13:18:13;1.83;;;0.30;;
39890;SDS011;25564;53.312;9.790;2022-07-06T13:20:45;1.77;;;0.35;;
39890;SDS011;25564;53.312;9.790;2022-07-06T13:23:16;2.40;;;1.10;;
39890;SDS011;25564;53.312;9.790;2022-07-06T13:25:48;3.20;;;0.60;;
39890;SDS011;25564;53.312;9.790;2022-07-06T13:28:19;3.17;;;0.70;;
39890;SDS011;25564;53.312;9.790;2022-07-06T13:30:51;3.13;;;0.40;;
39890;SDS011;25564;53.312;9.790;2022-07-06T13:33:22;1.13;;;0.22;;
39890;SDS011;25564;53.312;9.790;2022-07-06T13:35:54;1.52;;;0.40;;
39890;SDS011;25564;53.312;9.790;2022-07-06T13:38:25;0.40;;;0.20;;
39890;SDS011;25564;53.312;9.790;2022-07-06T13:40:57;2.45;;;0.60;;
39890;SDS011;25564;53.312;9.790;2022-07-06T13:43:28;1.65;;;0.50;;
39890;SDS011;25564;53.312;9.790;2022-07-06T13:46:07;4.97;;;0.50;;
39890;SDS011;25564;53.312;9.790;2022-07-06T13:48:39;2.22;;;0.35;;
39890;SDS011;25564;53.312;9.790;2022-07-06T13:51:10;3.03;;;0.40;;
39890;SDS011;25564;53.312;9.790;2022-07-06T13:53:42;1.77;;;0.40;;
39890;SDS011;25564;53.312;9.790;2022-07-06T13:56:13;2.25;;;0.43;;
39890;SDS011;25564;53.312;9.790;2022-07-06T13:58:44;1.42;;;0.57;;
39890;SDS011;25564;53.312;9.790;2022-07-06T14:01:16;1.70;;;0.40;;
39890;SDS011;25564;53.312;9.790;2022-07-06T14:03:55;0.50;;;0.30;;
39890;SDS011;25564;53.312;9.790;2022-07-06T14:06:27;2.75;;;0.30;;
39890;SDS011;25564;53.312;9.790;2022-07-06T14:09:00;2.10;;;0.50;;
39890;SDS011;25564;53.312;9.790;2022-07-06T14:11:32;2.70;;;0.38;;
39890;SDS011;25564;53.312;9.790;2022-07-06T14:14:03;3.55;;;0.50;;
39890;SDS011;25564;53.312;9.790;2022-07-06T14:16:39;0.70;;;0.40;;
39890;SDS011;25564;53.312;9.790;2022-07-06T14:19:12;0.68;;;0.35;;
39890;SDS011;25564;53.312;9.790;2022-07-06T14:21:51;3.70;;;0.47;;
39890;SDS011;25564;53.312;9.790;2022-07-06T14:24:22;2.42;;;0.40;;
39890;SDS011;25564;53.312;9.790;2022-07-06T14:27:01;1.45;;;0.40;;
39890;SDS011;25564;53.312;9.790;2022-07-06T14:29:33;3.35;;;0.65;;
39890;SDS011;25564;53.312;9.790;2022-07-06T14:32:04;1.52;;;0.50;;
39890;SDS011;25564;53.312;9.790;2022-07-06T14:34:36;1.17;;;0.80;;
39890;SDS011;25564;53.312;9.790;2022-07-06T14:37:08;2.17;;;0.47;;
39890;SDS011;25564;53.312;9.790;2022-07-06T14:39:39;4.38;;;0.77;;
39890;SDS011;25564;53.312;9.790;2022-07-06T14:42:10;0.98;;;0.40;;
39890;SDS011;25564;53.312;9.790;2022-07-06T14:44:42;1.73;;;0.60;;
39890;SDS011;25564;53.312;9.790;2022-07-06T14:47:13;2.42;;;0.60;;
39890;SDS011;25564;53.312;9.790;2022-07-06T14:49:45;2.38;;;0.50;;
39890;SDS011;25564;53.312;9.790;2022-07-06T14:52:16;1.92;;;0.40;;
39890;SDS011;25564;53.312;9.790;2022-07-06T14:54:48;0.70;;;0.30;;
39890;SDS011;25564;53.312;9.790;2022-07-06T14:57:19;2.83;;;0.30;;
39890;SDS011;25564;53.312;9.790;2022-07-06T14:59:51;1.50;;;0.30;;
39890;SDS011;25564;53.312;9.790;2022-07-06T15:02:22;1.90;;;0.73;;
39890;SDS011;25564;53.312;9.790;2022-07-06T15:04:53;3.13;;;0.47;;
39890;SDS011;25564;53.312;9.790;2022-07-06T15:07:25;1.70;;;0.47;;
39890;SDS011;25564;53.312;9.790;2022-07-06T15:09:56;4.07;;;1.27;;
39890;SDS011;25564;53.312;9.790;2022-07-06T15:12:27;1.85;;;0.63;;
39890;SDS011;25564;53.312;9.790;2022-07-06T15:14:59;4.70;;;0.55;;
39890;SDS011;25564;53.312;9.790;2022-07-06T15:17:30;2.10;;;0.38;;
39890;SDS011;25564;53.312;9.790;2022-07-06T15:20:02;1.55;;;0.30;;
39890;SDS011;25564;53.312;9.790;2022-07-06T15:22:34;0.70;;;0.38;;
39890;SDS011;25564;53.312;9.790;2022-07-06T15:25:07;1.65;;;0.55;;
39890;SDS011;25564;53.312;9.790;2022-07-06T15:27:39;1.95;;;1.20;;
39890;SDS011;25564;53.312;9.790;2022-07-06T15:30:10;2.47;;;0.65;;
39890;SDS011;25564;53.312;9.790;2022-07-06T15:33:00;3.08;;;0.70;;
39890;SDS011;25564;53.312;9.790;2022-07-06T15:35:32;2.13;;;0.52;;
39890;SDS011;25564;53.312;9.790;2022-07-06T15:38:05;2.33;;;0.50;;
39890;SDS011;25564;53.312;9.790;2022-07-06T15:40:38;0.98;;;0.30;;
39890;SDS011;25564;53.312;9.790;2022-07-06T15:43:15;1.23;;;0.60;;